This is the latest recevied weather packets stored in our database for station/object SQ3RAX-13. If no packets are shown the sender has not sent any weather packets the latest 10 day(s).
| Time | Temp. | Humidity | Pressure | Rain* | Wind** | Luminosity | Snow |
|---|---|---|---|---|---|---|---|
| 1777620299 | 13.89° C | 55% | 1028 hPa | 0 mm | - | - | - |
| 1777619699 | 13.33° C | 57% | 1028 hPa | 0 mm | - | - | - |
| 1777619099 | 12.78° C | 61% | 1028 hPa | 0 mm | - | - | - |
| 1777618499 | 12.78° C | 61% | 1028 hPa | 0 mm | - | - | - |
| 1777617899 | 12.78° C | 61% | 1028 hPa | 0 mm | - | - | - |
| 1777617299 | 11.67° C | 62% | 1028 hPa | 0 mm | - | - | - |
| 1777616699 | 11.67° C | 62% | 1028 hPa | 0 mm | - | - | - |
| 1777616099 | 10.56° C | 66% | 1028 hPa | 0 mm | - | - | - |
| 1777615499 | 10.56° C | 66% | 1028 hPa | 0 mm | - | - | - |
| 1777614899 | 10.56° C | 66% | 1028 hPa | 0 mm | - | - | - |
| 1777614299 | 10° C | 69% | 1028 hPa | 0 mm | - | - | - |
| 1777613699 | 10° C | 69% | 1028 hPa | 0 mm | - | - | - |
| 1777613099 | 7.78° C | 74% | 1027 hPa | 0 mm | - | - | - |
| 1777612499 | 7.78° C | 74% | 1027 hPa | 0 mm | - | - | - |
| 1777611899 | 7.22° C | 78% | 1028 hPa | 0 mm | - | - | - |
| 1777611299 | 7.22° C | 78% | 1028 hPa | 0 mm | - | - | - |
| 1777610699 | 7.22° C | 78% | 1028 hPa | 0 mm | - | - | - |
| 1777610099 | 6.67° C | 79% | 1028 hPa | 0 mm | - | - | - |
| 1777609499 | 5° C | 80% | 1027 hPa | 0 mm | - | - | - |
| 1777608899 | 5° C | 82% | 1027 hPa | 0 mm | - | - | - |
| 1777608299 | 5° C | 83% | 1028 hPa | 0 mm | - | - | - |
| 1777607699 | 5° C | 82% | 1028 hPa | 0 mm | - | - | - |
| 1777607099 | 5° C | 82% | 1028 hPa | 0 mm | - | - | - |
| 1777606499 | 4.44° C | 81% | 1028 hPa | 0 mm | - | - | - |
| 1777605899 | 4.44° C | 81% | 1028 hPa | 0 mm | - | - | - |
* Rain latest hour (hover to see other rain measurements)
** Current wind speed in m/s (hover to see current wind gust speed)